Terminal Aerodrome Forecast
Issued by NWS

Home | Current Version | Previous Version | Text Only | Print | Product List | Glossary On
Versions: 1 2 3 4 5 6 7 8 9 10 11 12 13 14 15
000
FTUS45 KABQ 240500
TAFGUP
TAF
KGUP 240537Z 2406/2506 34005KT P6SM SKC
     FM240800 VRB05KT P6SM SKC
     FM241800 25010G17KT P6SM SKC
     FM250200 28008KT P6SM SKC
     FM250400 VRB03KT P6SM SKC=

USA.gov is the U.S. government's official web portal to all federal, state and local government web resources and services.